sensor_id;sensor_type;location;lat;lon;timestamp;temperature;humidity
9816;DHT22;4947;44.526;11.360;2022-07-01T00:00:45;23.00;45.30
9816;DHT22;4947;44.526;11.360;2022-07-01T00:03:13;22.80;45.40
9816;DHT22;4947;44.526;11.360;2022-07-01T00:05:42;22.70;46.30
9816;DHT22;4947;44.526;11.360;2022-07-01T00:08:10;22.70;47.00
9816;DHT22;4947;44.526;11.360;2022-07-01T00:10:37;22.70;46.70
9816;DHT22;4947;44.526;11.360;2022-07-01T00:13:05;22.60;46.50
9816;DHT22;4947;44.526;11.360;2022-07-01T00:15:33;22.60;46.50
9816;DHT22;4947;44.526;11.360;2022-07-01T00:18:00;22.60;46.60
9816;DHT22;4947;44.526;11.360;2022-07-01T00:20:29;22.60;46.50
9816;DHT22;4947;44.526;11.360;2022-07-01T00:22:58;22.60;46.40
9816;DHT22;4947;44.526;11.360;2022-07-01T00:25:25;22.60;46.70
9816;DHT22;4947;44.526;11.360;2022-07-01T00:27:53;22.60;47.20
9816;DHT22;4947;44.526;11.360;2022-07-01T00:30:21;22.50;46.90
9816;DHT22;4947;44.526;11.360;2022-07-01T00:32:49;22.50;47.00
9816;DHT22;4947;44.526;11.360;2022-07-01T00:35:18;22.50;47.50
9816;DHT22;4947;44.526;11.360;2022-07-01T00:37:46;22.50;47.60
9816;DHT22;4947;44.526;11.360;2022-07-01T00:40:15;22.50;47.60
9816;DHT22;4947;44.526;11.360;2022-07-01T00:42:42;22.50;47.80
9816;DHT22;4947;44.526;11.360;2022-07-01T00:45:10;22.50;47.50
9816;DHT22;4947;44.526;11.360;2022-07-01T00:47:40;22.50;47.90
9816;DHT22;4947;44.526;11.360;2022-07-01T00:50:09;22.40;48.10
9816;DHT22;4947;44.526;11.360;2022-07-01T00:52:37;22.40;48.20
9816;DHT22;4947;44.526;11.360;2022-07-01T00:55:07;22.40;47.70
9816;DHT22;4947;44.526;11.360;2022-07-01T00:57:38;22.40;47.50
9816;DHT22;4947;44.526;11.360;2022-07-01T01:00:08;22.40;47.10
9816;DHT22;4947;44.526;11.360;2022-07-01T01:02:36;22.40;48.00
9816;DHT22;4947;44.526;11.360;2022-07-01T01:05:05;22.30;48.40
9816;DHT22;4947;44.526;11.360;2022-07-01T01:07:33;22.30;48.90
9816;DHT22;4947;44.526;11.360;2022-07-01T01:10:02;22.20;49.30
9816;DHT22;4947;44.526;11.360;2022-07-01T01:12:30;22.20;48.60
9816;DHT22;4947;44.526;11.360;2022-07-01T01:14:59;22.20;48.80
9816;DHT22;4947;44.526;11.360;2022-07-01T01:17:27;22.20;47.70
9816;DHT22;4947;44.526;11.360;2022-07-01T01:19:55;22.10;48.00
9816;DHT22;4947;44.526;11.360;2022-07-01T01:22:23;22.10;48.30
9816;DHT22;4947;44.526;11.360;2022-07-01T01:24:51;22.10;47.90
9816;DHT22;4947;44.526;11.360;2022-07-01T01:27:18;22.00;48.20
9816;DHT22;4947;44.526;11.360;2022-07-01T01:29:46;21.90;47.90
9816;DHT22;4947;44.526;11.360;2022-07-01T01:32:13;21.90;48.10
9816;DHT22;4947;44.526;11.360;2022-07-01T01:34:41;21.90;46.90
9816;DHT22;4947;44.526;11.360;2022-07-01T01:37:09;22.00;45.40
9816;DHT22;4947;44.526;11.360;2022-07-01T01:39:38;22.10;44.60
9816;DHT22;4947;44.526;11.360;2022-07-01T01:42:06;22.20;44.70
9816;DHT22;4947;44.526;11.360;2022-07-01T01:44:34;22.30;45.30
9816;DHT22;4947;44.526;11.360;2022-07-01T01:47:02;22.30;44.90
9816;DHT22;4947;44.526;11.360;2022-07-01T01:49:29;22.40;44.30
9816;DHT22;4947;44.526;11.360;2022-07-01T01:51:58;22.40;44.20
9816;DHT22;4947;44.526;11.360;2022-07-01T01:54:27;22.50;44.60
9816;DHT22;4947;44.526;11.360;2022-07-01T01:56:56;22.50;44.50
9816;DHT22;4947;44.526;11.360;2022-07-01T01:59:24;22.60;44.30
9816;DHT22;4947;44.526;11.360;2022-07-01T02:01:51;22.60;44.90
9816;DHT22;4947;44.526;11.360;2022-07-01T02:04:19;22.60;45.60
9816;DHT22;4947;44.526;11.360;2022-07-01T02:06:48;22.60;45.50
9816;DHT22;4947;44.526;11.360;2022-07-01T02:09:16;22.60;45.80
9816;DHT22;4947;44.526;11.360;2022-07-01T02:11:44;22.70;45.10
9816;DHT22;4947;44.526;11.360;2022-07-01T02:14:13;22.60;45.90
9816;DHT22;4947;44.526;11.360;2022-07-01T02:16:41;22.50;46.70
9816;DHT22;4947;44.526;11.360;2022-07-01T02:19:09;22.50;47.50
9816;DHT22;4947;44.526;11.360;2022-07-01T02:21:37;22.50;47.60
9816;DHT22;4947;44.526;11.360;2022-07-01T02:24:05;22.50;46.70
9816;DHT22;4947;44.526;11.360;2022-07-01T02:26:32;22.50;46.70
9816;DHT22;4947;44.526;11.360;2022-07-01T02:29:01;22.40;46.70
9816;DHT22;4947;44.526;11.360;2022-07-01T02:31:30;22.40;47.10
9816;DHT22;4947;44.526;11.360;2022-07-01T02:33:57;22.50;46.60
9816;DHT22;4947;44.526;11.360;2022-07-01T02:36:25;22.60;46.70
9816;DHT22;4947;44.526;11.360;2022-07-01T02:38:52;22.60;46.50
9816;DHT22;4947;44.526;11.360;2022-07-01T02:41:20;22.60;46.70
9816;DHT22;4947;44.526;11.360;2022-07-01T02:43:48;22.60;46.80
9816;DHT22;4947;44.526;11.360;2022-07-01T02:46:15;22.50;46.80
9816;DHT22;4947;44.526;11.360;2022-07-01T02:48:45;22.50;47.10
9816;DHT22;4947;44.526;11.360;2022-07-01T02:51:12;22.50;47.90
9816;DHT22;4947;44.526;11.360;2022-07-01T02:53:39;22.50;47.40
9816;DHT22;4947;44.526;11.360;2022-07-01T02:56:07;22.60;47.60
9816;DHT22;4947;44.526;11.360;2022-07-01T02:58:35;22.60;47.70
9816;DHT22;4947;44.526;11.360;2022-07-01T03:01:03;22.80;47.30
9816;DHT22;4947;44.526;11.360;2022-07-01T03:03:30;22.90;47.40
9816;DHT22;4947;44.526;11.360;2022-07-01T03:05:59;22.90;47.40
9816;DHT22;4947;44.526;11.360;2022-07-01T03:08:26;22.90;47.50
9816;DHT22;4947;44.526;11.360;2022-07-01T03:10:54;22.90;47.50
9816;DHT22;4947;44.526;11.360;2022-07-01T03:13:21;22.90;47.50
9816;DHT22;4947;44.526;11.360;2022-07-01T03:15:49;23.00;47.30
9816;DHT22;4947;44.526;11.360;2022-07-01T03:18:16;23.10;46.90
9816;DHT22;4947;44.526;11.360;2022-07-01T03:20:44;23.10;46.60
9816;DHT22;4947;44.526;11.360;2022-07-01T03:23:13;23.10;47.10
9816;DHT22;4947;44.526;11.360;2022-07-01T03:25:41;23.10;46.90
9816;DHT22;4947;44.526;11.360;2022-07-01T03:28:08;23.10;46.70
9816;DHT22;4947;44.526;11.360;2022-07-01T03:30:40;23.00;46.80
9816;DHT22;4947;44.526;11.360;2022-07-01T03:33:07;23.10;47.00
9816;DHT22;4947;44.526;11.360;2022-07-01T03:35:35;23.10;47.50
9816;DHT22;4947;44.526;11.360;2022-07-01T03:38:03;23.10;47.60
9816;DHT22;4947;44.526;11.360;2022-07-01T03:40:32;23.10;47.90
9816;DHT22;4947;44.526;11.360;2022-07-01T03:43:01;23.10;47.80
9816;DHT22;4947;44.526;11.360;2022-07-01T03:45:28;23.00;48.30
9816;DHT22;4947;44.526;11.360;2022-07-01T03:47:56;23.00;48.70
9816;DHT22;4947;44.526;11.360;2022-07-01T03:50:25;23.00;48.90
9816;DHT22;4947;44.526;11.360;2022-07-01T03:52:52;22.90;49.40
9816;DHT22;4947;44.526;11.360;2022-07-01T03:55:35;22.80;49.50
9816;DHT22;4947;44.526;11.360;2022-07-01T03:58:02;22.90;49.50
9816;DHT22;4947;44.526;11.360;2022-07-01T04:00:31;22.90;49.30
9816;DHT22;4947;44.526;11.360;2022-07-01T04:03:00;22.80;49.60
9816;DHT22;4947;44.526;11.360;2022-07-01T04:05:28;23.00;48.30
9816;DHT22;4947;44.526;11.360;2022-07-01T04:07:55;23.10;47.10
9816;DHT22;4947;44.526;11.360;2022-07-01T04:10:23;23.10;46.40
9816;DHT22;4947;44.526;11.360;2022-07-01T04:12:52;23.20;46.90
9816;DHT22;4947;44.526;11.360;2022-07-01T04:15:21;23.20;46.40
9816;DHT22;4947;44.526;11.360;2022-07-01T04:17:49;23.30;46.70
9816;DHT22;4947;44.526;11.360;2022-07-01T04:20:17;23.30;46.70
9816;DHT22;4947;44.526;11.360;2022-07-01T04:22:45;23.30;47.30
9816;DHT22;4947;44.526;11.360;2022-07-01T04:25:12;23.30;47.60
9816;DHT22;4947;44.526;11.360;2022-07-01T04:27:39;23.30;47.50
9816;DHT22;4947;44.526;11.360;2022-07-01T04:30:10;23.30;48.00
9816;DHT22;4947;44.526;11.360;2022-07-01T04:32:37;23.30;48.30
9816;DHT22;4947;44.526;11.360;2022-07-01T04:35:05;23.30;47.70
9816;DHT22;4947;44.526;11.360;2022-07-01T04:37:33;23.20;47.80
9816;DHT22;4947;44.526;11.360;2022-07-01T04:40:00;23.20;47.90
9816;DHT22;4947;44.526;11.360;2022-07-01T04:42:28;23.20;48.00
9816;DHT22;4947;44.526;11.360;2022-07-01T04:44:54;23.40;46.80
9816;DHT22;4947;44.526;11.360;2022-07-01T04:47:23;23.30;45.60
9816;DHT22;4947;44.526;11.360;2022-07-01T04:49:51;23.40;46.10
9816;DHT22;4947;44.526;11.360;2022-07-01T04:52:18;23.50;45.80
9816;DHT22;4947;44.526;11.360;2022-07-01T04:54:46;23.50;46.20
9816;DHT22;4947;44.526;11.360;2022-07-01T04:57:13;23.60;46.20
9816;DHT22;4947;44.526;11.360;2022-07-01T04:59:41;23.80;45.10
9816;DHT22;4947;44.526;11.360;2022-07-01T05:02:08;23.90;45.00
9816;DHT22;4947;44.526;11.360;2022-07-01T05:04:38;24.20;45.10
9816;DHT22;4947;44.526;11.360;2022-07-01T05:07:05;24.50;43.60
9816;DHT22;4947;44.526;11.360;2022-07-01T05:09:53;25.00;42.90
9816;DHT22;4947;44.526;11.360;2022-07-01T05:12:21;25.80;42.30
9816;DHT22;4947;44.526;11.360;2022-07-01T05:14:48;26.50;41.10
9816;DHT22;4947;44.526;11.360;2022-07-01T05:17:15;26.90;39.60
9816;DHT22;4947;44.526;11.360;2022-07-01T05:19:45;27.30;39.40
9816;DHT22;4947;44.526;11.360;2022-07-01T05:22:29;28.10;39.50
9816;DHT22;4947;44.526;11.360;2022-07-01T05:24:57;29.10;39.40
9816;DHT22;4947;44.526;11.360;2022-07-01T05:27:24;29.40;36.40
9816;DHT22;4947;44.526;11.360;2022-07-01T05:29:52;29.80;36.60
9816;DHT22;4947;44.526;11.360;2022-07-01T05:32:19;30.70;35.80
9816;DHT22;4947;44.526;11.360;2022-07-01T05:34:49;31.20;33.00
9816;DHT22;4947;44.526;11.360;2022-07-01T05:37:16;31.20;32.00
9816;DHT22;4947;44.526;11.360;2022-07-01T05:39:46;32.20;31.00
9816;DHT22;4947;44.526;11.360;2022-07-01T05:42:13;32.70;33.40
9816;DHT22;4947;44.526;11.360;2022-07-01T05:44:41;33.30;30.00
9816;DHT22;4947;44.526;11.360;2022-07-01T05:47:08;33.10;30.60
9816;DHT22;4947;44.526;11.360;2022-07-01T05:49:35;34.10;30.30
9816;DHT22;4947;44.526;11.360;2022-07-01T05:52:06;34.50;28.70
9816;DHT22;4947;44.526;11.360;2022-07-01T05:54:33;34.30;27.40
9816;DHT22;4947;44.526;11.360;2022-07-01T05:57:01;34.50;27.40
9816;DHT22;4947;44.526;11.360;2022-07-01T05:59:28;34.30;28.80
9816;DHT22;4947;44.526;11.360;2022-07-01T06:01:56;35.20;28.30
9816;DHT22;4947;44.526;11.360;2022-07-01T06:04:23;35.10;27.40
9816;DHT22;4947;44.526;11.360;2022-07-01T06:06:50;35.10;27.90
9816;DHT22;4947;44.526;11.360;2022-07-01T06:09:19;34.90;28.00
9816;DHT22;4947;44.526;11.360;2022-07-01T06:11:47;34.60;28.00
9816;DHT22;4947;44.526;11.360;2022-07-01T06:14:14;35.10;28.90
9816;DHT22;4947;44.526;11.360;2022-07-01T06:16:42;35.50;28.60
9816;DHT22;4947;44.526;11.360;2022-07-01T06:19:10;35.70;28.50
9816;DHT22;4947;44.526;11.360;2022-07-01T06:21:37;35.80;28.20
9816;DHT22;4947;44.526;11.360;2022-07-01T06:24:05;36.30;28.70
9816;DHT22;4947;44.526;11.360;2022-07-01T06:26:34;36.30;28.90
9816;DHT22;4947;44.526;11.360;2022-07-01T06:29:02;35.50;28.40
9816;DHT22;4947;44.526;11.360;2022-07-01T06:31:29;35.20;29.30
9816;DHT22;4947;44.526;11.360;2022-07-01T06:33:58;35.00;29.80
9816;DHT22;4947;44.526;11.360;2022-07-01T06:36:26;33.60;30.60
9816;DHT22;4947;44.526;11.360;2022-07-01T06:38:53;32.70;31.20
9816;DHT22;4947;44.526;11.360;2022-07-01T06:41:20;33.70;32.60
9816;DHT22;4947;44.526;11.360;2022-07-01T06:43:56;34.30;32.70
9816;DHT22;4947;44.526;11.360;2022-07-01T06:46:24;34.70;31.80
9816;DHT22;4947;44.526;11.360;2022-07-01T06:48:52;34.60;32.10
9816;DHT22;4947;44.526;11.360;2022-07-01T06:51:20;34.80;30.60
9816;DHT22;4947;44.526;11.360;2022-07-01T06:53:48;35.20;30.20
9816;DHT22;4947;44.526;11.360;2022-07-01T06:56:15;35.50;31.50
9816;DHT22;4947;44.526;11.360;2022-07-01T06:58:42;35.50;29.20
9816;DHT22;4947;44.526;11.360;2022-07-01T07:01:11;35.20;29.00
9816;DHT22;4947;44.526;11.360;2022-07-01T07:03:38;34.10;31.70
9816;DHT22;4947;44.526;11.360;2022-07-01T07:06:05;34.00;33.70
9816;DHT22;4947;44.526;11.360;2022-07-01T07:08:33;35.00;32.00
9816;DHT22;4947;44.526;11.360;2022-07-01T07:11:01;35.90;30.40
9816;DHT22;4947;44.526;11.360;2022-07-01T07:13:28;35.90;29.70
9816;DHT22;4947;44.526;11.360;2022-07-01T07:15:56;36.60;29.50
9816;DHT22;4947;44.526;11.360;2022-07-01T07:18:25;36.30;30.00
9816;DHT22;4947;44.526;11.360;2022-07-01T07:20:52;36.80;29.70
9816;DHT22;4947;44.526;11.360;2022-07-01T07:23:20;36.70;28.90
9816;DHT22;4947;44.526;11.360;2022-07-01T07:25:48;36.80;28.80
9816;DHT22;4947;44.526;11.360;2022-07-01T07:28:15;36.80;28.30
9816;DHT22;4947;44.526;11.360;2022-07-01T07:30:43;37.50;28.70
9816;DHT22;4947;44.526;11.360;2022-07-01T07:33:11;36.50;27.80
9816;DHT22;4947;44.526;11.360;2022-07-01T07:35:40;36.10;28.30
9816;DHT22;4947;44.526;11.360;2022-07-01T07:38:08;36.40;29.10
9816;DHT22;4947;44.526;11.360;2022-07-01T07:40:36;36.60;29.50
9816;DHT22;4947;44.526;11.360;2022-07-01T07:43:03;36.80;29.80
9816;DHT22;4947;44.526;11.360;2022-07-01T07:45:32;36.50;29.80
9816;DHT22;4947;44.526;11.360;2022-07-01T07:48:00;36.10;30.90
9816;DHT22;4947;44.526;11.360;2022-07-01T07:50:28;36.20;30.20
9816;DHT22;4947;44.526;11.360;2022-07-01T07:52:57;37.10;30.90
9816;DHT22;4947;44.526;11.360;2022-07-01T07:55:24;37.10;29.80
9816;DHT22;4947;44.526;11.360;2022-07-01T07:57:53;37.50;29.90
9816;DHT22;4947;44.526;11.360;2022-07-01T08:00:21;37.60;29.80
9816;DHT22;4947;44.526;11.360;2022-07-01T08:02:48;37.10;29.90
9816;DHT22;4947;44.526;11.360;2022-07-01T08:05:15;37.40;29.00
9816;DHT22;4947;44.526;11.360;2022-07-01T08:07:43;37.60;28.80
9816;DHT22;4947;44.526;11.360;2022-07-01T08:10:13;37.80;28.50
9816;DHT22;4947;44.526;11.360;2022-07-01T08:12:41;38.20;31.60
9816;DHT22;4947;44.526;11.360;2022-07-01T08:15:09;37.90;30.40
9816;DHT22;4947;44.526;11.360;2022-07-01T08:17:37;36.90;29.50
9816;DHT22;4947;44.526;11.360;2022-07-01T08:20:06;36.40;28.70
9816;DHT22;4947;44.526;11.360;2022-07-01T08:22:33;36.80;30.30
9816;DHT22;4947;44.526;11.360;2022-07-01T08:25:01;36.50;29.60
9816;DHT22;4947;44.526;11.360;2022-07-01T08:27:30;36.50;27.80
9816;DHT22;4947;44.526;11.360;2022-07-01T08:29:58;36.90;27.30
9816;DHT22;4947;44.526;11.360;2022-07-01T08:32:26;36.60;27.60
9816;DHT22;4947;44.526;11.360;2022-07-01T08:34:54;36.70;26.60
9816;DHT22;4947;44.526;11.360;2022-07-01T08:37:22;36.90;28.10
9816;DHT22;4947;44.526;11.360;2022-07-01T08:39:49;37.50;28.50
9816;DHT22;4947;44.526;11.360;2022-07-01T08:42:16;37.40;28.60
9816;DHT22;4947;44.526;11.360;2022-07-01T08:44:45;37.90;28.20
9816;DHT22;4947;44.526;11.360;2022-07-01T08:47:14;38.20;27.80
9816;DHT22;4947;44.526;11.360;2022-07-01T08:49:41;38.40;28.20
9816;DHT22;4947;44.526;11.360;2022-07-01T08:52:10;38.30;27.80
9816;DHT22;4947;44.526;11.360;2022-07-01T08:54:37;38.60;27.40
9816;DHT22;4947;44.526;11.360;2022-07-01T08:57:06;39.30;27.20
9816;DHT22;4947;44.526;11.360;2022-07-01T08:59:34;39.80;26.90
9816;DHT22;4947;44.526;11.360;2022-07-01T09:02:04;39.70;27.30
9816;DHT22;4947;44.526;11.360;2022-07-01T09:04:33;40.00;27.30
9816;DHT22;4947;44.526;11.360;2022-07-01T09:07:03;39.50;26.60
9816;DHT22;4947;44.526;11.360;2022-07-01T09:09:34;39.40;27.10
9816;DHT22;4947;44.526;11.360;2022-07-01T09:12:04;39.90;26.60
9816;DHT22;4947;44.526;11.360;2022-07-01T09:14:33;40.00;27.10
9816;DHT22;4947;44.526;11.360;2022-07-01T09:17:05;39.50;26.20
9816;DHT22;4947;44.526;11.360;2022-07-01T09:19:34;39.30;27.00
9816;DHT22;4947;44.526;11.360;2022-07-01T09:22:03;39.40;27.60
9816;DHT22;4947;44.526;11.360;2022-07-01T09:24:32;39.60;27.70
9816;DHT22;4947;44.526;11.360;2022-07-01T09:27:02;39.00;27.40
9816;DHT22;4947;44.526;11.360;2022-07-01T09:29:35;39.00;27.20
9816;DHT22;4947;44.526;11.360;2022-07-01T09:32:07;38.40;28.50
9816;DHT22;4947;44.526;11.360;2022-07-01T09:34:40;37.90;28.00
9816;DHT22;4947;44.526;11.360;2022-07-01T09:37:11;37.60;28.20
9816;DHT22;4947;44.526;11.360;2022-07-01T09:39:44;37.30;29.10
9816;DHT22;4947;44.526;11.360;2022-07-01T09:42:12;37.20;28.80
9816;DHT22;4947;44.526;11.360;2022-07-01T09:44:52;37.10;29.20
9816;DHT22;4947;44.526;11.360;2022-07-01T09:47:23;36.50;30.00
9816;DHT22;4947;44.526;11.360;2022-07-01T09:49:51;36.60;30.10
9816;DHT22;4947;44.526;11.360;2022-07-01T09:52:19;36.30;30.50
9816;DHT22;4947;44.526;11.360;2022-07-01T09:54:48;36.00;30.30
9816;DHT22;4947;44.526;11.360;2022-07-01T09:57:16;35.90;31.40
9816;DHT22;4947;44.526;11.360;2022-07-01T09:59:44;35.90;30.40
9816;DHT22;4947;44.526;11.360;2022-07-01T10:02:12;35.60;30.80
9816;DHT22;4947;44.526;11.360;2022-07-01T10:04:49;35.60;30.30
9816;DHT22;4947;44.526;11.360;2022-07-01T10:07:30;35.70;30.00
9816;DHT22;4947;44.526;11.360;2022-07-01T10:10:20;35.40;30.20
9816;DHT22;4947;44.526;11.360;2022-07-01T10:12:53;35.10;30.90
9816;DHT22;4947;44.526;11.360;2022-07-01T10:15:21;34.90;31.20
9816;DHT22;4947;44.526;11.360;2022-07-01T10:17:50;35.30;31.60
9816;DHT22;4947;44.526;11.360;2022-07-01T10:20:24;35.20;30.90
9816;DHT22;4947;44.526;11.360;2022-07-01T10:23:00;35.40;31.40
9816;DHT22;4947;44.526;11.360;2022-07-01T10:25:39;35.70;31.20
9816;DHT22;4947;44.526;11.360;2022-07-01T10:28:20;35.70;31.60
9816;DHT22;4947;44.526;11.360;2022-07-01T10:30:54;35.70;31.20
9816;DHT22;4947;44.526;11.360;2022-07-01T10:33:43;35.60;31.60
9816;DHT22;4947;44.526;11.360;2022-07-01T10:36:28;35.70;31.20
9816;DHT22;4947;44.526;11.360;2022-07-01T10:39:14;35.80;31.50
9816;DHT22;4947;44.526;11.360;2022-07-01T10:41:59;35.90;31.40
9816;DHT22;4947;44.526;11.360;2022-07-01T10:44:28;35.90;31.70
9816;DHT22;4947;44.526;11.360;2022-07-01T10:47:04;35.90;30.50
9816;DHT22;4947;44.526;11.360;2022-07-01T10:49:51;35.50;30.20
9816;DHT22;4947;44.526;11.360;2022-07-01T10:52:21;35.60;30.80
9816;DHT22;4947;44.526;11.360;2022-07-01T10:54:51;35.60;30.60
9816;DHT22;4947;44.526;11.360;2022-07-01T10:57:33;35.40;30.10
9816;DHT22;4947;44.526;11.360;2022-07-01T11:00:27;35.30;29.90
9816;DHT22;4947;44.526;11.360;2022-07-01T11:03:11;35.30;31.30
9816;DHT22;4947;44.526;11.360;2022-07-01T11:05:42;35.40;30.80
9816;DHT22;4947;44.526;11.360;2022-07-01T11:08:12;35.40;30.50
9816;DHT22;4947;44.526;11.360;2022-07-01T11:10:40;35.10;30.90
9816;DHT22;4947;44.526;11.360;2022-07-01T11:13:12;35.20;31.90
9816;DHT22;4947;44.526;11.360;2022-07-01T11:15:41;35.40;31.60
9816;DHT22;4947;44.526;11.360;2022-07-01T11:18:09;35.40;31.90
9816;DHT22;4947;44.526;11.360;2022-07-01T11:20:36;35.40;31.50
9816;DHT22;4947;44.526;11.360;2022-07-01T11:23:04;35.40;31.60
9816;DHT22;4947;44.526;11.360;2022-07-01T11:25:34;35.10;31.80
9816;DHT22;4947;44.526;11.360;2022-07-01T11:28:01;35.20;31.30
9816;DHT22;4947;44.526;11.360;2022-07-01T11:30:29;35.20;31.40
9816;DHT22;4947;44.526;11.360;2022-07-01T11:32:58;35.10;32.40
9816;DHT22;4947;44.526;11.360;2022-07-01T11:35:27;35.20;32.20
9816;DHT22;4947;44.526;11.360;2022-07-01T11:38:13;35.10;32.50
9816;DHT22;4947;44.526;11.360;2022-07-01T11:41:00;35.00;32.90
9816;DHT22;4947;44.526;11.360;2022-07-01T11:43:30;35.00;31.90
9816;DHT22;4947;44.526;11.360;2022-07-01T11:46:00;34.90;33.60
9816;DHT22;4947;44.526;11.360;2022-07-01T11:48:38;35.00;32.90
9816;DHT22;4947;44.526;11.360;2022-07-01T11:51:09;35.20;32.60
9816;DHT22;4947;44.526;11.360;2022-07-01T11:53:38;35.40;32.50
9816;DHT22;4947;44.526;11.360;2022-07-01T11:56:07;35.30;32.80
9816;DHT22;4947;44.526;11.360;2022-07-01T11:58:49;35.20;32.80
9816;DHT22;4947;44.526;11.360;2022-07-01T12:01:23;34.90;32.50
9816;DHT22;4947;44.526;11.360;2022-07-01T12:03:51;35.00;34.90
9816;DHT22;4947;44.526;11.360;2022-07-01T12:06:19;35.10;33.20
9816;DHT22;4947;44.526;11.360;2022-07-01T12:08:49;35.30;33.00
9816;DHT22;4947;44.526;11.360;2022-07-01T12:11:19;35.40;32.90
9816;DHT22;4947;44.526;11.360;2022-07-01T12:13:48;35.40;32.70
9816;DHT22;4947;44.526;11.360;2022-07-01T12:16:16;35.30;33.10
9816;DHT22;4947;44.526;11.360;2022-07-01T12:18:52;35.30;32.90
9816;DHT22;4947;44.526;11.360;2022-07-01T12:21:19;35.20;34.10
9816;DHT22;4947;44.526;11.360;2022-07-01T12:24:08;35.40;32.30
9816;DHT22;4947;44.526;11.360;2022-07-01T12:26:50;35.50;32.80
9816;DHT22;4947;44.526;11.360;2022-07-01T12:29:19;35.10;32.40
9816;DHT22;4947;44.526;11.360;2022-07-01T12:32:01;35.30;32.80
9816;DHT22;4947;44.526;11.360;2022-07-01T12:34:40;35.10;33.70
9816;DHT22;4947;44.526;11.360;2022-07-01T12:37:09;35.10;33.50
9816;DHT22;4947;44.526;11.360;2022-07-01T12:39:47;35.10;32.60
9816;DHT22;4947;44.526;11.360;2022-07-01T12:42:24;35.20;32.80
9816;DHT22;4947;44.526;11.360;2022-07-01T12:44:54;35.40;32.20
9816;DHT22;4947;44.526;11.360;2022-07-01T12:47:25;35.40;32.20
9816;DHT22;4947;44.526;11.360;2022-07-01T12:50:17;35.40;32.30
9816;DHT22;4947;44.526;11.360;2022-07-01T12:52:57;35.00;32.80
9816;DHT22;4947;44.526;11.360;2022-07-01T12:55:25;35.10;33.60
9816;DHT22;4947;44.526;11.360;2022-07-01T12:57:56;34.80;33.00
9816;DHT22;4947;44.526;11.360;2022-07-01T13:00:25;34.50;33.20
9816;DHT22;4947;44.526;11.360;2022-07-01T13:02:54;34.70;34.20
9816;DHT22;4947;44.526;11.360;2022-07-01T13:05:22;34.90;33.40
9816;DHT22;4947;44.526;11.360;2022-07-01T13:07:50;35.00;34.40
9816;DHT22;4947;44.526;11.360;2022-07-01T13:10:19;35.00;34.20
9816;DHT22;4947;44.526;11.360;2022-07-01T13:12:47;35.00;33.70
9816;DHT22;4947;44.526;11.360;2022-07-01T13:15:17;35.20;33.10
9816;DHT22;4947;44.526;11.360;2022-07-01T13:17:46;35.30;33.60
9816;DHT22;4947;44.526;11.360;2022-07-01T13:20:15;35.30;33.30
9816;DHT22;4947;44.526;11.360;2022-07-01T13:22:43;35.20;34.00
9816;DHT22;4947;44.526;11.360;2022-07-01T13:25:12;35.10;32.90
9816;DHT22;4947;44.526;11.360;2022-07-01T13:27:40;35.20;33.20
9816;DHT22;4947;44.526;11.360;2022-07-01T13:30:09;34.90;33.50
9816;DHT22;4947;44.526;11.360;2022-07-01T13:32:38;35.10;33.60
9816;DHT22;4947;44.526;11.360;2022-07-01T13:35:07;35.00;33.10
9816;DHT22;4947;44.526;11.360;2022-07-01T13:37:35;35.00;33.20
9816;DHT22;4947;44.526;11.360;2022-07-01T13:40:03;35.10;33.80
9816;DHT22;4947;44.526;11.360;2022-07-01T13:42:31;35.10;33.20
9816;DHT22;4947;44.526;11.360;2022-07-01T13:44:58;35.10;33.20
9816;DHT22;4947;44.526;11.360;2022-07-01T13:47:26;35.30;34.60
9816;DHT22;4947;44.526;11.360;2022-07-01T13:49:55;35.20;33.30
9816;DHT22;4947;44.526;11.360;2022-07-01T13:52:22;35.10;34.10
9816;DHT22;4947;44.526;11.360;2022-07-01T13:54:50;35.10;34.20
9816;DHT22;4947;44.526;11.360;2022-07-01T13:57:18;35.20;34.80
9816;DHT22;4947;44.526;11.360;2022-07-01T13:59:45;35.30;34.80
9816;DHT22;4947;44.526;11.360;2022-07-01T14:02:13;35.20;34.20
9816;DHT22;4947;44.526;11.360;2022-07-01T14:04:40;35.10;34.30
9816;DHT22;4947;44.526;11.360;2022-07-01T14:07:13;35.30;34.60
9816;DHT22;4947;44.526;11.360;2022-07-01T14:09:42;35.40;34.50
9816;DHT22;4947;44.526;11.360;2022-07-01T14:12:11;35.40;34.30
9816;DHT22;4947;44.526;11.360;2022-07-01T14:14:41;35.30;34.20
9816;DHT22;4947;44.526;11.360;2022-07-01T14:17:09;35.40;34.90
9816;DHT22;4947;44.526;11.360;2022-07-01T14:19:37;35.60;33.70
9816;DHT22;4947;44.526;11.360;2022-07-01T14:22:04;35.60;33.70
9816;DHT22;4947;44.526;11.360;2022-07-01T14:24:34;35.70;33.60
9816;DHT22;4947;44.526;11.360;2022-07-01T14:27:01;35.70;33.80
9816;DHT22;4947;44.526;11.360;2022-07-01T14:29:29;35.50;33.70
9816;DHT22;4947;44.526;11.360;2022-07-01T14:31:57;35.40;34.30
9816;DHT22;4947;44.526;11.360;2022-07-01T14:34:25;35.40;35.10
9816;DHT22;4947;44.526;11.360;2022-07-01T14:36:53;35.20;34.50
9816;DHT22;4947;44.526;11.360;2022-07-01T14:39:20;35.40;34.30
9816;DHT22;4947;44.526;11.360;2022-07-01T14:41:52;35.40;33.90
9816;DHT22;4947;44.526;11.360;2022-07-01T14:44:21;35.50;34.00
9816;DHT22;4947;44.526;11.360;2022-07-01T14:46:48;35.50;34.40
9816;DHT22;4947;44.526;11.360;2022-07-01T14:49:16;35.50;34.10
9816;DHT22;4947;44.526;11.360;2022-07-01T14:51:44;35.40;34.20
9816;DHT22;4947;44.526;11.360;2022-07-01T14:54:11;35.40;34.80
9816;DHT22;4947;44.526;11.360;2022-07-01T14:56:38;35.40;34.30
9816;DHT22;4947;44.526;11.360;2022-07-01T14:59:08;35.50;34.00
9816;DHT22;4947;44.526;11.360;2022-07-01T15:01:35;35.50;35.00
9816;DHT22;4947;44.526;11.360;2022-07-01T15:04:03;35.50;34.30
9816;DHT22;4947;44.526;11.360;2022-07-01T15:06:31;35.40;33.70
9816;DHT22;4947;44.526;11.360;2022-07-01T15:08:58;35.50;34.60
9816;DHT22;4947;44.526;11.360;2022-07-01T15:11:25;35.40;33.60
9816;DHT22;4947;44.526;11.360;2022-07-01T15:13:53;35.40;34.20
9816;DHT22;4947;44.526;11.360;2022-07-01T15:16:22;35.50;34.50
9816;DHT22;4947;44.526;11.360;2022-07-01T15:18:50;35.40;33.40
9816;DHT22;4947;44.526;11.360;2022-07-01T15:21:18;34.90;34.20
9816;DHT22;4947;44.526;11.360;2022-07-01T15:23:46;34.80;34.70
9816;DHT22;4947;44.526;11.360;2022-07-01T15:26:15;34.70;35.20
9816;DHT22;4947;44.526;11.360;2022-07-01T15:28:43;34.80;35.60
9816;DHT22;4947;44.526;11.360;2022-07-01T15:31:11;34.50;36.00
9816;DHT22;4947;44.526;11.360;2022-07-01T15:33:41;34.70;36.20
9816;DHT22;4947;44.526;11.360;2022-07-01T15:36:09;34.90;36.20
9816;DHT22;4947;44.526;11.360;2022-07-01T15:38:37;34.80;35.90
9816;DHT22;4947;44.526;11.360;2022-07-01T15:41:05;34.70;36.10
9816;DHT22;4947;44.526;11.360;2022-07-01T15:43:33;34.90;36.30
9816;DHT22;4947;44.526;11.360;2022-07-01T15:46:01;34.80;36.10
9816;DHT22;4947;44.526;11.360;2022-07-01T15:48:29;34.70;36.10
9816;DHT22;4947;44.526;11.360;2022-07-01T15:50:58;34.80;36.70
9816;DHT22;4947;44.526;11.360;2022-07-01T15:53:25;34.80;36.00
9816;DHT22;4947;44.526;11.360;2022-07-01T15:55:53;34.70;36.40
9816;DHT22;4947;44.526;11.360;2022-07-01T15:58:20;34.60;36.40